sensor_id;sensor_type;location;lat;lon;timestamp;P1;durP1;ratioP1;P2;durP2;ratioP2
49153;SDS011;49455;52.252;9.124;2023-04-08T00:03:52;9.63;;;6.13;;
49153;SDS011;49455;52.252;9.124;2023-04-08T00:08:53;8.63;;;5.97;;
49153;SDS011;49455;52.252;9.124;2023-04-08T00:13:53;8.00;;;5.40;;
49153;SDS011;49455;52.252;9.124;2023-04-08T00:18:54;7.75;;;5.60;;
49153;SDS011;49455;52.252;9.124;2023-04-08T00:23:54;9.73;;;5.43;;
49153;SDS011;49455;52.252;9.124;2023-04-08T00:28:54;7.93;;;5.57;;
49153;SDS011;49455;52.252;9.124;2023-04-08T00:33:55;7.90;;;5.70;;
49153;SDS011;49455;52.252;9.124;2023-04-08T00:38:55;7.35;;;5.70;;
49153;SDS011;49455;52.252;9.124;2023-04-08T00:43:56;7.57;;;5.60;;
49153;SDS011;49455;52.252;9.124;2023-04-08T00:48:56;9.90;;;6.32;;
49153;SDS011;49455;52.252;9.124;2023-04-08T00:53:57;9.93;;;6.82;;
49153;SDS011;49455;52.252;9.124;2023-04-08T00:59:00;9.32;;;6.57;;
49153;SDS011;49455;52.252;9.124;2023-04-08T01:09:34;10.13;;;7.18;;
49153;SDS011;49455;52.252;9.124;2023-04-08T01:14:38;13.18;;;7.70;;
49153;SDS011;49455;52.252;9.124;2023-04-08T01:19:41;11.15;;;7.55;;
49153;SDS011;49455;52.252;9.124;2023-04-08T01:24:42;14.48;;;9.32;;
49153;SDS011;49455;52.252;9.124;2023-04-08T01:29:44;11.35;;;8.63;;
49153;SDS011;49455;52.252;9.124;2023-04-08T01:34:46;12.23;;;8.57;;
49153;SDS011;49455;52.252;9.124;2023-04-08T01:39:47;14.13;;;9.30;;
49153;SDS011;49455;52.252;9.124;2023-04-08T01:44:49;13.20;;;8.90;;
49153;SDS011;49455;52.252;9.124;2023-04-08T01:49:52;15.57;;;10.30;;
49153;SDS011;49455;52.252;9.124;2023-04-08T01:54:52;14.10;;;10.07;;
49153;SDS011;49455;52.252;9.124;2023-04-08T01:59:55;16.10;;;10.57;;
49153;SDS011;49455;52.252;9.124;2023-04-08T02:04:59;14.23;;;10.35;;
49153;SDS011;49455;52.252;9.124;2023-04-08T02:10:00;17.02;;;10.65;;
49153;SDS011;49455;52.252;9.124;2023-04-08T02:15:01;18.52;;;10.95;;
49153;SDS011;49455;52.252;9.124;2023-04-08T02:20:05;17.65;;;11.02;;
49153;SDS011;49455;52.252;9.124;2023-04-08T02:25:10;16.30;;;11.32;;
49153;SDS011;49455;52.252;9.124;2023-04-08T02:30:13;17.40;;;11.30;;
49153;SDS011;49455;52.252;9.124;2023-04-08T02:35:18;14.32;;;10.68;;
49153;SDS011;49455;52.252;9.124;2023-04-08T02:40:23;12.55;;;9.63;;
49153;SDS011;49455;52.252;9.124;2023-04-08T02:45:43;16.00;;;10.32;;
49153;SDS011;49455;52.252;9.124;2023-04-08T02:50:44;11.75;;;8.27;;
49153;SDS011;49455;52.252;9.124;2023-04-08T02:55:44;15.35;;;9.00;;
49153;SDS011;49455;52.252;9.124;2023-04-08T03:00:45;14.40;;;8.88;;
49153;SDS011;49455;52.252;9.124;2023-04-08T03:05:45;17.35;;;9.85;;
49153;SDS011;49455;52.252;9.124;2023-04-08T03:10:46;13.95;;;8.98;;
49153;SDS011;49455;52.252;9.124;2023-04-08T03:15:46;13.68;;;9.55;;
49153;SDS011;49455;52.252;9.124;2023-04-08T03:20:47;14.23;;;10.15;;
49153;SDS011;49455;52.252;9.124;2023-04-08T03:25:47;15.98;;;10.77;;
49153;SDS011;49455;52.252;9.124;2023-04-08T03:30:48;13.73;;;9.80;;
49153;SDS011;49455;52.252;9.124;2023-04-08T03:35:48;25.45;;;19.63;;
49153;SDS011;49455;52.252;9.124;2023-04-08T03:40:48;14.35;;;10.25;;
49153;SDS011;49455;52.252;9.124;2023-04-08T03:45:49;14.80;;;9.20;;
49153;SDS011;49455;52.252;9.124;2023-04-08T03:50:49;12.85;;;8.52;;
49153;SDS011;49455;52.252;9.124;2023-04-08T03:55:50;12.98;;;9.15;;
49153;SDS011;49455;52.252;9.124;2023-04-08T04:00:50;15.35;;;8.68;;
49153;SDS011;49455;52.252;9.124;2023-04-08T04:05:50;13.10;;;8.48;;
49153;SDS011;49455;52.252;9.124;2023-04-08T04:10:51;13.57;;;9.18;;
49153;SDS011;49455;52.252;9.124;2023-04-08T04:15:51;13.85;;;9.23;;
49153;SDS011;49455;52.252;9.124;2023-04-08T04:20:52;15.43;;;9.38;;
49153;SDS011;49455;52.252;9.124;2023-04-08T04:25:52;14.38;;;9.25;;
49153;SDS011;49455;52.252;9.124;2023-04-08T04:30:52;11.53;;;8.67;;
49153;SDS011;49455;52.252;9.124;2023-04-08T04:35:53;14.77;;;9.27;;
49153;SDS011;49455;52.252;9.124;2023-04-08T04:40:53;14.77;;;10.30;;
49153;SDS011;49455;52.252;9.124;2023-04-08T04:45:54;14.38;;;10.48;;
49153;SDS011;49455;52.252;9.124;2023-04-08T04:50:57;14.35;;;9.02;;
49153;SDS011;49455;52.252;9.124;2023-04-08T04:55:58;14.88;;;9.85;;
49153;SDS011;49455;52.252;9.124;2023-04-08T05:00:59;14.80;;;9.50;;
49153;SDS011;49455;52.252;9.124;2023-04-08T05:05:59;14.93;;;9.70;;
49153;SDS011;49455;52.252;9.124;2023-04-08T05:11:00;14.73;;;10.35;;
49153;SDS011;49455;52.252;9.124;2023-04-08T05:16:00;14.38;;;9.77;;
49153;SDS011;49455;52.252;9.124;2023-04-08T05:21:01;15.65;;;10.02;;
49153;SDS011;49455;52.252;9.124;2023-04-08T05:26:02;21.85;;;11.65;;
49153;SDS011;49455;52.252;9.124;2023-04-08T05:31:05;17.88;;;11.23;;
49153;SDS011;49455;52.252;9.124;2023-04-08T05:36:06;16.88;;;11.18;;
49153;SDS011;49455;52.252;9.124;2023-04-08T05:41:06;20.37;;;11.50;;
49153;SDS011;49455;52.252;9.124;2023-04-08T05:46:07;18.98;;;12.07;;
49153;SDS011;49455;52.252;9.124;2023-04-08T05:51:12;21.45;;;12.43;;
49153;SDS011;49455;52.252;9.124;2023-04-08T05:56:14;20.05;;;12.55;;
49153;SDS011;49455;52.252;9.124;2023-04-08T06:01:14;22.73;;;13.65;;
49153;SDS011;49455;52.252;9.124;2023-04-08T06:06:14;27.33;;;13.13;;
49153;SDS011;49455;52.252;9.124;2023-04-08T06:11:15;20.13;;;13.02;;
49153;SDS011;49455;52.252;9.124;2023-04-08T06:16:15;22.15;;;13.77;;
49153;SDS011;49455;52.252;9.124;2023-04-08T06:21:16;23.33;;;13.93;;
49153;SDS011;49455;52.252;9.124;2023-04-08T06:26:16;35.72;;;16.45;;
49153;SDS011;49455;52.252;9.124;2023-04-08T06:31:17;34.60;;;16.40;;
49153;SDS011;49455;52.252;9.124;2023-04-08T06:36:17;31.52;;;17.60;;
49153;SDS011;49455;52.252;9.124;2023-04-08T06:41:17;33.72;;;17.15;;
49153;SDS011;49455;52.252;9.124;2023-04-08T06:46:18;31.13;;;16.23;;
49153;SDS011;49455;52.252;9.124;2023-04-08T06:51:19;33.33;;;17.05;;
49153;SDS011;49455;52.252;9.124;2023-04-08T06:56:19;28.65;;;16.73;;
49153;SDS011;49455;52.252;9.124;2023-04-08T07:01:19;46.60;;;21.58;;
49153;SDS011;49455;52.252;9.124;2023-04-08T07:06:20;33.00;;;17.97;;
49153;SDS011;49455;52.252;9.124;2023-04-08T07:11:22;30.48;;;16.95;;
49153;SDS011;49455;52.252;9.124;2023-04-08T07:16:23;35.90;;;19.17;;
49153;SDS011;49455;52.252;9.124;2023-04-08T07:21:23;35.97;;;19.57;;
49153;SDS011;49455;52.252;9.124;2023-04-08T07:26:24;35.95;;;17.52;;
49153;SDS011;49455;52.252;9.124;2023-04-08T07:31:24;38.28;;;18.65;;
49153;SDS011;49455;52.252;9.124;2023-04-08T07:36:24;33.53;;;17.57;;
49153;SDS011;49455;52.252;9.124;2023-04-08T07:41:25;33.67;;;17.77;;
49153;SDS011;49455;52.252;9.124;2023-04-08T07:46:25;35.33;;;17.03;;
49153;SDS011;49455;52.252;9.124;2023-04-08T07:51:25;35.55;;;18.52;;
49153;SDS011;49455;52.252;9.124;2023-04-08T07:56:26;34.45;;;17.67;;
49153;SDS011;49455;52.252;9.124;2023-04-08T08:01:26;37.90;;;18.87;;
49153;SDS011;49455;52.252;9.124;2023-04-08T08:06:27;38.75;;;19.02;;
49153;SDS011;49455;52.252;9.124;2023-04-08T08:11:27;36.22;;;19.60;;
49153;SDS011;49455;52.252;9.124;2023-04-08T08:16:28;37.40;;;19.75;;
49153;SDS011;49455;52.252;9.124;2023-04-08T08:21:29;40.87;;;20.73;;
49153;SDS011;49455;52.252;9.124;2023-04-08T08:26:29;40.03;;;20.38;;
49153;SDS011;49455;52.252;9.124;2023-04-08T08:31:30;44.03;;;22.30;;
49153;SDS011;49455;52.252;9.124;2023-04-08T08:36:30;41.15;;;20.77;;
49153;SDS011;49455;52.252;9.124;2023-04-08T08:41:33;37.90;;;20.25;;
49153;SDS011;49455;52.252;9.124;2023-04-08T08:46:34;40.33;;;21.08;;
49153;SDS011;49455;52.252;9.124;2023-04-08T08:51:34;38.67;;;20.13;;
49153;SDS011;49455;52.252;9.124;2023-04-08T08:56:35;37.22;;;19.52;;
49153;SDS011;49455;52.252;9.124;2023-04-08T09:01:36;39.33;;;19.33;;
49153;SDS011;49455;52.252;9.124;2023-04-08T09:06:38;38.60;;;20.10;;
49153;SDS011;49455;52.252;9.124;2023-04-08T09:11:39;40.63;;;20.95;;
49153;SDS011;49455;52.252;9.124;2023-04-08T09:16:41;39.53;;;20.80;;
49153;SDS011;49455;52.252;9.124;2023-04-08T09:21:42;38.13;;;20.08;;
49153;SDS011;49455;52.252;9.124;2023-04-08T09:26:44;38.97;;;21.23;;
49153;SDS011;49455;52.252;9.124;2023-04-08T09:31:45;40.58;;;21.90;;
49153;SDS011;49455;52.252;9.124;2023-04-08T09:36:45;43.90;;;21.63;;
49153;SDS011;49455;52.252;9.124;2023-04-08T09:41:49;38.92;;;20.23;;
49153;SDS011;49455;52.252;9.124;2023-04-08T09:57:09;37.05;;;20.08;;
49153;SDS011;49455;52.252;9.124;2023-04-08T10:02:15;39.35;;;22.00;;
49153;SDS011;49455;52.252;9.124;2023-04-08T10:07:18;44.15;;;25.42;;
49153;SDS011;49455;52.252;9.124;2023-04-08T10:12:19;43.70;;;21.73;;
49153;SDS011;49455;52.252;9.124;2023-04-08T10:17:23;89.28;;;43.03;;
49153;SDS011;49455;52.252;9.124;2023-04-08T10:27:37;51.60;;;30.08;;
49153;SDS011;49455;52.252;9.124;2023-04-08T10:32:42;39.63;;;22.63;;
49153;SDS011;49455;52.252;9.124;2023-04-08T10:37:42;32.50;;;19.63;;
49153;SDS011;49455;52.252;9.124;2023-04-08T10:42:43;39.30;;;20.98;;
49153;SDS011;49455;52.252;9.124;2023-04-08T10:47:43;38.58;;;20.88;;
49153;SDS011;49455;52.252;9.124;2023-04-08T10:52:50;38.28;;;22.20;;
49153;SDS011;49455;52.252;9.124;2023-04-08T10:57:52;35.95;;;21.27;;
49153;SDS011;49455;52.252;9.124;2023-04-08T11:02:53;38.63;;;22.08;;
49153;SDS011;49455;52.252;9.124;2023-04-08T11:07:53;36.95;;;20.33;;
49153;SDS011;49455;52.252;9.124;2023-04-08T11:12:54;38.03;;;21.90;;
49153;SDS011;49455;52.252;9.124;2023-04-08T11:17:55;43.22;;;23.48;;
49153;SDS011;49455;52.252;9.124;2023-04-08T11:22:55;41.10;;;21.50;;
49153;SDS011;49455;52.252;9.124;2023-04-08T11:27:56;41.35;;;22.60;;
49153;SDS011;49455;52.252;9.124;2023-04-08T11:32:57;37.42;;;21.95;;
49153;SDS011;49455;52.252;9.124;2023-04-08T11:37:57;36.05;;;20.23;;
49153;SDS011;49455;52.252;9.124;2023-04-08T11:42:58;33.90;;;20.52;;
49153;SDS011;49455;52.252;9.124;2023-04-08T11:47:58;37.03;;;22.17;;
49153;SDS011;49455;52.252;9.124;2023-04-08T11:52:59;39.40;;;24.00;;
49153;SDS011;49455;52.252;9.124;2023-04-08T11:58:03;42.58;;;23.77;;
49153;SDS011;49455;52.252;9.124;2023-04-08T12:03:04;37.92;;;23.27;;
49153;SDS011;49455;52.252;9.124;2023-04-08T12:08:05;40.73;;;24.43;;
49153;SDS011;49455;52.252;9.124;2023-04-08T12:13:05;36.70;;;24.15;;
49153;SDS011;49455;52.252;9.124;2023-04-08T12:18:06;41.33;;;23.65;;
49153;SDS011;49455;52.252;9.124;2023-04-08T12:23:06;40.33;;;22.48;;
49153;SDS011;49455;52.252;9.124;2023-04-08T12:28:07;35.70;;;21.80;;
49153;SDS011;49455;52.252;9.124;2023-04-08T12:33:07;35.85;;;22.17;;
49153;SDS011;49455;52.252;9.124;2023-04-08T12:38:07;42.53;;;23.55;;
49153;SDS011;49455;52.252;9.124;2023-04-08T12:43:08;36.22;;;21.58;;
49153;SDS011;49455;52.252;9.124;2023-04-08T12:48:08;40.40;;;24.17;;
49153;SDS011;49455;52.252;9.124;2023-04-08T12:53:09;38.35;;;24.50;;
49153;SDS011;49455;52.252;9.124;2023-04-08T12:58:10;42.45;;;24.15;;
49153;SDS011;49455;52.252;9.124;2023-04-08T13:03:10;38.65;;;24.20;;
49153;SDS011;49455;52.252;9.124;2023-04-08T13:08:11;43.13;;;26.20;;
49153;SDS011;49455;52.252;9.124;2023-04-08T13:13:12;45.15;;;26.83;;
49153;SDS011;49455;52.252;9.124;2023-04-08T13:18:12;46.10;;;26.52;;
49153;SDS011;49455;52.252;9.124;2023-04-08T13:23:12;48.72;;;26.63;;
49153;SDS011;49455;52.252;9.124;2023-04-08T13:28:13;46.55;;;26.50;;
49153;SDS011;49455;52.252;9.124;2023-04-08T13:33:13;43.78;;;24.20;;
49153;SDS011;49455;52.252;9.124;2023-04-08T13:38:14;45.80;;;25.92;;
49153;SDS011;49455;52.252;9.124;2023-04-08T13:43:14;43.03;;;23.23;;
49153;SDS011;49455;52.252;9.124;2023-04-08T13:48:15;39.45;;;23.90;;
49153;SDS011;49455;52.252;9.124;2023-04-08T13:53:15;39.40;;;24.45;;
49153;SDS011;49455;52.252;9.124;2023-04-08T13:58:15;37.58;;;22.50;;
49153;SDS011;49455;52.252;9.124;2023-04-08T14:03:16;37.00;;;22.30;;
49153;SDS011;49455;52.252;9.124;2023-04-08T14:08:17;40.65;;;22.67;;
49153;SDS011;49455;52.252;9.124;2023-04-08T14:13:17;41.28;;;23.85;;
49153;SDS011;49455;52.252;9.124;2023-04-08T14:18:18;39.70;;;23.38;;
49153;SDS011;49455;52.252;9.124;2023-04-08T14:23:18;39.22;;;23.83;;
49153;SDS011;49455;52.252;9.124;2023-04-08T14:28:19;34.53;;;22.17;;
49153;SDS011;49455;52.252;9.124;2023-04-08T14:33:19;34.47;;;22.73;;
49153;SDS011;49455;52.252;9.124;2023-04-08T14:38:22;39.65;;;23.80;;
49153;SDS011;49455;52.252;9.124;2023-04-08T14:43:23;37.15;;;22.17;;
49153;SDS011;49455;52.252;9.124;2023-04-08T14:48:23;36.50;;;22.30;;
49153;SDS011;49455;52.252;9.124;2023-04-08T14:53:24;38.05;;;23.40;;
49153;SDS011;49455;52.252;9.124;2023-04-08T14:58:24;35.05;;;22.60;;
49153;SDS011;49455;52.252;9.124;2023-04-08T15:03:25;35.85;;;22.20;;
49153;SDS011;49455;52.252;9.124;2023-04-08T15:08:29;35.13;;;21.88;;
49153;SDS011;49455;52.252;9.124;2023-04-08T15:13:29;39.30;;;22.65;;
49153;SDS011;49455;52.252;9.124;2023-04-08T15:18:29;34.72;;;21.75;;
49153;SDS011;49455;52.252;9.124;2023-04-08T15:23:30;32.42;;;20.33;;
49153;SDS011;49455;52.252;9.124;2023-04-08T15:28:30;32.78;;;20.33;;
49153;SDS011;49455;52.252;9.124;2023-04-08T15:33:31;31.30;;;19.70;;
49153;SDS011;49455;52.252;9.124;2023-04-08T15:38:31;34.78;;;21.75;;
49153;SDS011;49455;52.252;9.124;2023-04-08T15:43:32;33.88;;;21.92;;
49153;SDS011;49455;52.252;9.124;2023-04-08T15:48:32;38.05;;;23.00;;
49153;SDS011;49455;52.252;9.124;2023-04-08T15:53:33;37.45;;;23.83;;
49153;SDS011;49455;52.252;9.124;2023-04-08T15:58:34;34.97;;;22.05;;
49153;SDS011;49455;52.252;9.124;2023-04-08T16:03:34;36.47;;;21.95;;
49153;SDS011;49455;52.252;9.124;2023-04-08T16:08:35;32.50;;;19.25;;
49153;SDS011;49455;52.252;9.124;2023-04-08T16:13:35;29.08;;;19.08;;
49153;SDS011;49455;52.252;9.124;2023-04-08T16:18:36;27.42;;;17.88;;
49153;SDS011;49455;52.252;9.124;2023-04-08T16:23:36;30.75;;;19.98;;
49153;SDS011;49455;52.252;9.124;2023-04-08T16:28:37;31.30;;;19.83;;
49153;SDS011;49455;52.252;9.124;2023-04-08T16:33:37;32.03;;;19.85;;
49153;SDS011;49455;52.252;9.124;2023-04-08T16:38:38;35.95;;;21.17;;
49153;SDS011;49455;52.252;9.124;2023-04-08T16:43:38;33.08;;;20.45;;
49153;SDS011;49455;52.252;9.124;2023-04-08T16:48:39;35.78;;;21.55;;
49153;SDS011;49455;52.252;9.124;2023-04-08T16:53:39;34.90;;;22.30;;
49153;SDS011;49455;52.252;9.124;2023-04-08T16:58:40;37.15;;;22.35;;
49153;SDS011;49455;52.252;9.124;2023-04-08T17:03:41;45.58;;;27.27;;
49153;SDS011;49455;52.252;9.124;2023-04-08T17:08:41;43.35;;;27.50;;
49153;SDS011;49455;52.252;9.124;2023-04-08T17:13:42;45.30;;;29.00;;
49153;SDS011;49455;52.252;9.124;2023-04-08T17:18:43;47.33;;;29.17;;
49153;SDS011;49455;52.252;9.124;2023-04-08T17:23:43;49.38;;;29.58;;
49153;SDS011;49455;52.252;9.124;2023-04-08T17:28:44;47.25;;;30.67;;
49153;SDS011;49455;52.252;9.124;2023-04-08T17:33:44;49.58;;;30.63;;
49153;SDS011;49455;52.252;9.124;2023-04-08T17:38:45;43.15;;;28.58;;
49153;SDS011;49455;52.252;9.124;2023-04-08T17:43:45;48.78;;;30.92;;
49153;SDS011;49455;52.252;9.124;2023-04-08T17:48:46;39.35;;;25.70;;
49153;SDS011;49455;52.252;9.124;2023-04-08T17:53:46;42.10;;;24.50;;
49153;SDS011;49455;52.252;9.124;2023-04-08T17:58:46;35.10;;;23.25;;
49153;SDS011;49455;52.252;9.124;2023-04-08T18:03:47;38.45;;;23.15;;
49153;SDS011;49455;52.252;9.124;2023-04-08T18:08:47;35.40;;;22.58;;
49153;SDS011;49455;52.252;9.124;2023-04-08T18:13:48;41.20;;;24.00;;
49153;SDS011;49455;52.252;9.124;2023-04-08T18:18:48;37.30;;;24.05;;
49153;SDS011;49455;52.252;9.124;2023-04-08T18:23:49;44.50;;;25.40;;
49153;SDS011;49455;52.252;9.124;2023-04-08T18:28:49;40.50;;;24.05;;
49153;SDS011;49455;52.252;9.124;2023-04-08T18:33:49;38.45;;;24.02;;
49153;SDS011;49455;52.252;9.124;2023-04-08T18:38:50;44.63;;;25.60;;
49153;SDS011;49455;52.252;9.124;2023-04-08T18:43:51;47.10;;;27.88;;
49153;SDS011;49455;52.252;9.124;2023-04-08T18:48:52;48.47;;;28.08;;
49153;SDS011;49455;52.252;9.124;2023-04-08T18:53:52;49.30;;;28.73;;
49153;SDS011;49455;52.252;9.124;2023-04-08T18:58:52;53.55;;;29.95;;
49153;SDS011;49455;52.252;9.124;2023-04-08T19:03:53;54.83;;;30.23;;
49153;SDS011;49455;52.252;9.124;2023-04-08T19:08:53;60.17;;;32.35;;
49153;SDS011;49455;52.252;9.124;2023-04-08T19:13:54;61.75;;;34.42;;
49153;SDS011;49455;52.252;9.124;2023-04-08T19:18:55;70.47;;;37.47;;
49153;SDS011;49455;52.252;9.124;2023-04-08T19:23:55;65.15;;;32.35;;
49153;SDS011;49455;52.252;9.124;2023-04-08T19:28:56;61.88;;;30.70;;
49153;SDS011;49455;52.252;9.124;2023-04-08T19:33:56;54.83;;;28.92;;
49153;SDS011;49455;52.252;9.124;2023-04-08T19:38:57;56.75;;;28.40;;
49153;SDS011;49455;52.252;9.124;2023-04-08T19:43:57;55.28;;;28.23;;
49153;SDS011;49455;52.252;9.124;2023-04-08T19:48:58;48.10;;;25.75;;
49153;SDS011;49455;52.252;9.124;2023-04-08T19:53:58;48.33;;;25.67;;
49153;SDS011;49455;52.252;9.124;2023-04-08T19:59:02;52.60;;;26.35;;
49153;SDS011;49455;52.252;9.124;2023-04-08T20:04:02;46.60;;;27.02;;
49153;SDS011;49455;52.252;9.124;2023-04-08T20:09:11;45.05;;;24.10;;
49153;SDS011;49455;52.252;9.124;2023-04-08T20:14:12;49.38;;;25.85;;
49153;SDS011;49455;52.252;9.124;2023-04-08T20:19:12;44.75;;;25.58;;
49153;SDS011;49455;52.252;9.124;2023-04-08T20:24:13;47.85;;;26.95;;
49153;SDS011;49455;52.252;9.124;2023-04-08T20:29:14;42.83;;;23.83;;
49153;SDS011;49455;52.252;9.124;2023-04-08T20:34:14;48.25;;;25.98;;
49153;SDS011;49455;52.252;9.124;2023-04-08T20:39:15;48.45;;;26.70;;
49153;SDS011;49455;52.252;9.124;2023-04-08T20:44:15;48.70;;;26.90;;
49153;SDS011;49455;52.252;9.124;2023-04-08T20:49:16;52.83;;;28.80;;
49153;SDS011;49455;52.252;9.124;2023-04-08T20:54:16;46.67;;;26.95;;
49153;SDS011;49455;52.252;9.124;2023-04-08T20:59:17;48.70;;;25.90;;
49153;SDS011;49455;52.252;9.124;2023-04-08T21:04:17;54.13;;;26.15;;
49153;SDS011;49455;52.252;9.124;2023-04-08T21:09:18;46.72;;;26.25;;
49153;SDS011;49455;52.252;9.124;2023-04-08T21:14:18;42.20;;;23.88;;
49153;SDS011;49455;52.252;9.124;2023-04-08T21:19:19;45.33;;;25.05;;
49153;SDS011;49455;52.252;9.124;2023-04-08T21:24:19;46.78;;;25.33;;
49153;SDS011;49455;52.252;9.124;2023-04-08T21:29:20;49.13;;;25.90;;
49153;SDS011;49455;52.252;9.124;2023-04-08T21:34:20;52.15;;;26.92;;
49153;SDS011;49455;52.252;9.124;2023-04-08T21:39:21;49.50;;;27.48;;
49153;SDS011;49455;52.252;9.124;2023-04-08T21:44:21;55.15;;;29.13;;
49153;SDS011;49455;52.252;9.124;2023-04-08T21:49:22;55.97;;;28.60;;
49153;SDS011;49455;52.252;9.124;2023-04-08T21:54:22;51.85;;;28.55;;
49153;SDS011;49455;52.252;9.124;2023-04-08T21:59:23;61.65;;;31.15;;
49153;SDS011;49455;52.252;9.124;2023-04-08T22:04:24;58.40;;;29.60;;
49153;SDS011;49455;52.252;9.124;2023-04-08T22:09:24;64.50;;;33.00;;
49153;SDS011;49455;52.252;9.124;2023-04-08T22:14:25;66.60;;;32.75;;
49153;SDS011;49455;52.252;9.124;2023-04-08T22:19:26;64.05;;;32.47;;
49153;SDS011;49455;52.252;9.124;2023-04-08T22:24:27;65.32;;;33.30;;
49153;SDS011;49455;52.252;9.124;2023-04-08T22:29:28;64.68;;;32.25;;
49153;SDS011;49455;52.252;9.124;2023-04-08T22:34:28;64.07;;;31.20;;
49153;SDS011;49455;52.252;9.124;2023-04-08T22:39:29;60.37;;;31.13;;
49153;SDS011;49455;52.252;9.124;2023-04-08T22:44:29;60.05;;;30.52;;
49153;SDS011;49455;52.252;9.124;2023-04-08T22:49:30;59.75;;;30.77;;
49153;SDS011;49455;52.252;9.124;2023-04-08T22:54:30;54.00;;;27.95;;
49153;SDS011;49455;52.252;9.124;2023-04-08T22:59:31;55.58;;;26.95;;
49153;SDS011;49455;52.252;9.124;2023-04-08T23:04:34;55.67;;;28.17;;
49153;SDS011;49455;52.252;9.124;2023-04-08T23:09:35;50.33;;;27.30;;
49153;SDS011;49455;52.252;9.124;2023-04-08T23:14:35;55.33;;;29.08;;
49153;SDS011;49455;52.252;9.124;2023-04-08T23:19:36;53.85;;;27.23;;
49153;SDS011;49455;52.252;9.124;2023-04-08T23:24:36;51.45;;;28.02;;
49153;SDS011;49455;52.252;9.124;2023-04-08T23:29:37;52.97;;;27.90;;
49153;SDS011;49455;52.252;9.124;2023-04-08T23:34:40;50.60;;;25.98;;
49153;SDS011;49455;52.252;9.124;2023-04-08T23:39:40;54.00;;;28.08;;
49153;SDS011;49455;52.252;9.124;2023-04-08T23:44:41;53.42;;;28.98;;
49153;SDS011;49455;52.252;9.124;2023-04-08T23:49:42;56.30;;;27.70;;
49153;SDS011;49455;52.252;9.124;2023-04-08T23:54:42;56.77;;;29.63;;
49153;SDS011;49455;52.252;9.124;2023-04-08T23:59:42;58.08;;;30.50;;
